Time;durP1;ratioP1;P1;durP2;ratioP2;P2;SDS_P1;SDS_P2;PMS_P1;PMS_P2;Temp;Humidity;BMP_temperature;BMP_pressure;BME280_temperature;BME280_humidity;BME280_pressure;Samples;Min_cycle;Max_cycle;Signal;HPM_P1;HPM_P2
2023/12/23 00:00:18;;;;;;;4.55;0.90;;;;;;;-148.88;100.00;-17125.47;5042681;28;20033;-80
2023/12/23 00:02:43;;;;;;;6.07;1.10;;;;;;;-148.88;100.00;-17125.47;5041720;28;20047;-80
2023/12/23 00:05:09;;;;;;;6.93;0.90;;;;;;;-148.88;100.00;-17125.47;5043121;28;20027;-80
2023/12/23 00:07:35;;;;;;;7.93;0.85;;;;;;;-148.88;100.00;-17125.47;5042248;28;20071;-80
2023/12/23 00:10:01;;;;;;;5.35;1.25;;;;;;;-148.88;100.00;-17125.47;5058431;28;20036;-80
2023/12/23 00:12:27;;;;;;;4.53;1.20;;;;;;;-148.88;100.00;-17125.47;5058587;28;20029;-80
2023/12/23 00:17:27;;;;;;;5.53;1.45;;;;;;;-148.88;100.00;-17125.47;5035550;28;20122;-84
2023/12/23 00:19:53;;;;;;;8.15;1.00;;;;;;;-148.88;100.00;-17125.47;5035232;28;20017;-84
2023/12/23 00:22:18;;;;;;;10.02;1.90;;;;;;;-148.88;100.00;-17125.47;5035174;28;20066;-84
2023/12/23 00:24:43;;;;;;;9.15;1.25;;;;;;;-148.88;100.00;-17125.47;5038068;28;20444;-85
2023/12/23 00:27:09;;;;;;;6.80;1.52;;;;;;;-148.88;100.00;-17125.47;5037607;28;20017;-84
2023/12/23 00:29:34;;;;;;;9.40;1.20;;;;;;;-148.88;100.00;-17125.47;5037701;28;20021;-84
2023/12/23 00:32:00;;;;;;;3.42;0.63;;;;;;;-148.88;100.00;-17125.47;5038289;28;20044;-84
2023/12/23 00:34:25;;;;;;;6.30;1.02;;;;;;;-148.88;100.00;-17125.47;5036660;28;20037;-84
2023/12/23 00:36:50;;;;;;;9.45;0.82;;;;;;;-148.88;100.00;-17125.47;5037010;28;20025;-84
2023/12/23 00:39:16;;;;;;;6.93;1.55;;;;;;;-148.88;100.00;-17125.47;5035399;28;20029;-84
2023/12/23 00:41:41;;;;;;;3.88;1.02;;;;;;;-148.88;100.00;-17125.47;5037614;28;20118;-84
2023/12/23 00:44:07;;;;;;;2.15;0.98;;;;;;;-148.88;100.00;-17125.47;5037614;28;20022;-84
2023/12/23 00:46:34;;;;;;;5.15;1.08;;;;;;;-148.88;100.00;-17125.47;5036459;28;20030;-84
2023/12/23 00:48:59;;;;;;;7.40;1.02;;;;;;;-148.88;100.00;-17125.47;5035989;28;20041;-84
2023/12/23 00:51:24;;;;;;;4.32;0.77;;;;;;;-148.88;100.00;-17125.47;5035016;28;20116;-84
2023/12/23 00:53:50;;;;;;;8.77;0.75;;;;;;;-148.88;100.00;-17125.47;5035737;28;20052;-84
2023/12/23 00:56:20;;;;;;;8.07;1.65;;;;;;;-148.88;100.00;-17125.47;5037160;28;20021;-84
2023/12/23 00:58:45;;;;;;;12.18;1.85;;;;;;;-148.88;100.00;-17125.47;5037329;28;20029;-84
2023/12/23 01:01:10;;;;;;;3.63;0.75;;;;;;;-148.88;100.00;-17125.47;5034885;28;20064;-84
2023/12/23 01:03:36;;;;;;;8.50;1.30;;;;;;;-148.88;100.00;-17125.47;5034889;28;20022;-84
2023/12/23 01:06:01;;;;;;;9.30;1.10;;;;;;;-148.88;100.00;-17125.47;5034257;28;20029;-84
2023/12/23 01:08:27;;;;;;;6.13;0.82;;;;;;;-148.88;100.00;-17125.47;5034147;28;20048;-84
2023/12/23 01:10:52;;;;;;;7.55;1.10;;;;;;;-148.88;100.00;-17125.47;5034075;28;20424;-84
2023/12/23 01:13:19;;;;;;;4.70;0.90;;;;;;;-148.88;100.00;-17125.47;5035537;28;20032;-84
2023/12/23 01:15:44;;;;;;;6.30;1.52;;;;;;;-148.88;100.00;-17125.47;5034896;28;20116;-84
2023/12/23 01:18:10;;;;;;;3.55;0.80;;;;;;;-148.88;100.00;-17125.47;5035343;28;20065;-84
2023/12/23 01:20:38;;;;;;;7.00;1.05;;;;;;;-148.88;100.00;-17125.47;5035291;28;20025;-84
2023/12/23 01:23:04;;;;;;;7.00;0.93;;;;;;;-148.88;100.00;-17125.47;5034219;28;20086;-84
2023/12/23 01:25:29;;;;;;;5.75;0.93;;;;;;;-148.88;100.00;-17125.47;5034397;28;20116;-84
2023/12/23 01:27:54;;;;;;;9.63;0.85;;;;;;;-148.88;100.00;-17125.47;5034159;28;20041;-84
2023/12/23 01:30:20;;;;;;;1.90;0.60;;;;;;;-148.88;100.00;-17125.47;5033593;28;20021;-84
2023/12/23 01:36:07;;;;;;;4.43;0.63;;;;;;;-148.88;100.00;-17125.47;5035030;28;20103;-85
2023/12/23 01:38:35;;;;;;;12.07;1.50;;;;;;;-148.88;100.00;-17125.47;5033527;28;20491;-84
2023/12/23 01:41:00;;;;;;;14.10;1.55;;;;;;;-148.88;100.00;-17125.47;5033239;28;20026;-84
2023/12/23 01:43:26;;;;;;;6.93;1.00;;;;;;;-148.88;100.00;-17125.47;5034632;28;20027;-84
2023/12/23 01:45:58;;;;;;;3.20;0.52;;;;;;;-148.88;100.00;-17125.47;5035032;28;20025;-84
2023/12/23 01:48:24;;;;;;;13.18;1.08;;;;;;;-148.88;100.00;-17125.47;5033313;28;20025;-84
2023/12/23 01:50:52;;;;;;;7.80;1.23;;;;;;;-148.88;100.00;-17125.47;5034434;28;20476;-84
2023/12/23 01:53:17;;;;;;;7.07;0.70;;;;;;;-148.88;100.00;-17125.47;5033177;28;20040;-84
2023/12/23 01:55:43;;;;;;;5.50;0.93;;;;;;;-148.88;100.00;-17125.47;5034339;28;20033;-84
2023/12/23 01:58:09;;;;;;;4.68;0.75;;;;;;;-148.88;100.00;-17125.47;5034401;28;20018;-84
2023/12/23 02:00:35;;;;;;;6.47;0.70;;;;;;;-148.88;100.00;-17125.47;5034433;28;20033;-84
2023/12/23 02:03:00;;;;;;;5.47;0.95;;;;;;;-148.88;100.00;-17125.47;5033997;28;20388;-84
2023/12/23 02:05:26;;;;;;;2.92;0.68;;;;;;;-148.88;100.00;-17125.47;5033800;28;20029;-84
2023/12/23 02:07:52;;;;;;;6.20;0.80;;;;;;;-148.88;100.00;-17125.47;5033992;28;20459;-84
2023/12/23 02:10:19;;;;;;;7.07;1.15;;;;;;;-148.88;100.00;-17125.47;5032345;28;20049;-84
2023/12/23 02:13:24;;;;;;;10.68;0.95;;;;;;;-148.88;100.00;-17125.47;5032959;28;20439;-84
2023/12/23 02:15:52;;;;;;;8.15;1.23;;;;;;;-148.88;100.00;-17125.47;5032512;28;20156;-84
2023/12/23 02:18:17;;;;;;;12.88;0.95;;;;;;;-148.88;100.00;-17125.47;5033794;28;20036;-84
2023/12/23 02:20:50;;;;;;;7.50;1.10;;;;;;;-148.88;100.00;-17125.47;5032354;28;20030;-84
2023/12/23 02:23:17;;;;;;;11.23;0.90;;;;;;;-148.88;100.00;-17125.47;5032554;28;20614;-84
2023/12/23 02:25:45;;;;;;;5.95;0.70;;;;;;;-148.88;100.00;-17125.47;5032313;28;20092;-84
2023/12/23 02:28:14;;;;;;;5.90;0.98;;;;;;;-148.88;100.00;-17125.47;5033693;28;20034;-85
2023/12/23 02:30:43;;;;;;;5.53;1.10;;;;;;;-148.88;100.00;-17125.47;5032314;28;20490;-84
2023/12/23 02:33:28;;;;;;;5.68;0.73;;;;;;;-148.88;100.00;-17125.47;5033318;28;20028;-84
2023/12/23 02:35:54;;;;;;;6.47;1.10;;;;;;;-148.88;100.00;-17125.47;5032378;28;20102;-85
2023/12/23 02:38:22;;;;;;;3.38;0.73;;;;;;;-148.88;100.00;-17125.47;5033171;28;20033;-84
2023/12/23 02:40:48;;;;;;;9.88;0.90;;;;;;;-148.88;100.00;-17125.47;5031868;28;20473;-84
2023/12/23 02:43:14;;;;;;;5.22;0.93;;;;;;;-148.88;100.00;-17125.47;5033283;28;20053;-84
2023/12/23 02:45:39;;;;;;;8.88;2.22;;;;;;;-148.88;100.00;-17125.47;5035994;28;20508;-84
2023/12/23 02:48:05;;;;;;;4.03;0.68;;;;;;;-148.88;100.00;-17125.47;5033090;28;20033;-84
2023/12/23 02:50:31;;;;;;;6.22;1.50;;;;;;;-148.88;100.00;-17125.47;5032810;28;20018;-84
2023/12/23 02:52:59;;;;;;;7.53;1.10;;;;;;;-148.88;100.00;-17125.47;5034339;28;20025;-84
2023/12/23 02:55:24;;;;;;;6.10;1.05;;;;;;;-148.88;100.00;-17125.47;5033092;28;20395;-84
2023/12/23 02:57:50;;;;;;;5.65;0.85;;;;;;;-148.88;100.00;-17125.47;5035413;28;20481;-85
2023/12/23 03:00:16;;;;;;;15.73;2.45;;;;;;;-148.88;100.00;-17125.47;5033131;28;20047;-84
2023/12/23 03:02:41;;;;;;;8.63;1.48;;;;;;;-148.88;100.00;-17125.47;5036838;28;20052;-85
2023/12/23 03:05:07;;;;;;;6.97;1.60;;;;;;;-148.88;100.00;-17125.47;5037882;28;20021;-85
2023/12/23 03:07:32;;;;;;;12.18;1.20;;;;;;;-148.88;100.00;-17125.47;5039042;28;20044;-85
2023/12/23 03:09:58;;;;;;;6.15;0.60;;;;;;;-148.88;100.00;-17125.47;5037623;28;20083;-85
2023/12/23 03:12:23;;;;;;;16.88;2.95;;;;;;;-148.88;100.00;-17125.47;5037057;28;20373;-84
2023/12/23 03:14:49;;;;;;;7.63;1.25;;;;;;;-148.88;100.00;-17125.47;5033287;28;20029;-84
2023/12/23 03:17:14;;;;;;;3.22;0.55;;;;;;;-148.88;100.00;-17125.47;5032163;28;20068;-85
2023/12/23 03:19:43;;;;;;;5.72;0.95;;;;;;;-148.88;100.00;-17125.47;5033926;28;20025;-85
2023/12/23 03:22:08;;;;;;;4.40;0.85;;;;;;;-148.88;100.00;-17125.47;5036727;28;20503;-85
2023/12/23 03:24:33;;;;;;;5.68;0.82;;;;;;;-148.88;100.00;-17125.47;5037540;28;20049;-85
2023/12/23 03:26:59;;;;;;;2.80;0.82;;;;;;;-148.88;100.00;-17125.47;5037226;28;20025;-84
2023/12/23 03:29:24;;;;;;;9.75;0.95;;;;;;;-148.88;100.00;-17125.47;5035407;28;20084;-85
2023/12/23 03:31:50;;;;;;;5.20;0.70;;;;;;;-148.88;100.00;-17125.47;5034909;28;20472;-85
2023/12/23 03:34:17;;;;;;;8.05;0.90;;;;;;;-148.88;100.00;-17125.47;5036546;28;20025;-84
2023/12/23 03:36:43;;;;;;;3.63;0.85;;;;;;;-148.88;100.00;-17125.47;5034938;28;20029;-85
2023/12/23 03:39:09;;;;;;;8.52;1.00;;;;;;;-148.88;100.00;-17125.47;5037289;28;20025;-84
2023/12/23 03:41:35;;;;;;;7.60;0.95;;;;;;;-148.88;100.00;-17125.47;5035168;28;20060;-85
2023/12/23 03:44:00;;;;;;;5.35;0.77;;;;;;;-148.88;100.00;-17125.47;5035480;28;20056;-85
2023/12/23 03:46:27;;;;;;;6.63;0.98;;;;;;;-148.88;100.00;-17125.47;5037223;28;20484;-85
2023/12/23 03:48:52;;;;;;;9.48;1.45;;;;;;;-148.88;100.00;-17125.47;5033435;28;20022;-84
2023/12/23 03:51:18;;;;;;;3.35;0.68;;;;;;;-148.88;100.00;-17125.47;5031355;28;20068;-84
2023/12/23 03:53:43;;;;;;;7.32;0.88;;;;;;;-148.88;100.00;-17125.47;5032972;28;20396;-84
2023/12/23 03:56:08;;;;;;;4.93;0.68;;;;;;;-148.88;100.00;-17125.47;5031628;28;20025;-85
2023/12/23 03:58:34;;;;;;;3.90;0.60;;;;;;;-148.88;100.00;-17125.47;5035263;28;20032;-85
2023/12/23 04:00:59;;;;;;;3.72;0.90;;;;;;;-148.88;100.00;-17125.47;5033678;28;20035;-85
2023/12/23 04:03:25;;;;;;;1.88;0.52;;;;;;;-148.88;100.00;-17125.47;5034815;28;20022;-85
2023/12/23 04:05:50;;;;;;;3.95;0.80;;;;;;;-148.88;100.00;-17125.47;5033929;28;20508;-85
2023/12/23 04:08:16;;;;;;;4.40;1.00;;;;;;;-148.88;100.00;-17125.47;5034423;28;20506;-85
2023/12/23 04:10:42;;;;;;;2.65;0.70;;;;;;;-148.88;100.00;-17125.47;5033627;28;20156;-85
2023/12/23 04:13:08;;;;;;;5.75;0.82;;;;;;;-148.88;100.00;-17125.47;5035514;28;20069;-85
2023/12/23 04:15:33;;;;;;;3.75;0.68;;;;;;;-148.88;100.00;-17125.47;5036478;28;20045;-85
2023/12/23 04:17:58;;;;;;;3.72;0.65;;;;;;;-148.88;100.00;-17125.47;5035532;28;20036;-85
2023/12/23 04:20:24;;;;;;;6.40;0.80;;;;;;;-148.88;100.00;-17125.47;5035987;28;20389;-85
2023/12/23 04:22:50;;;;;;;5.55;0.88;;;;;;;-148.88;100.00;-17125.47;5035492;28;20024;-85
2023/12/23 04:25:15;;;;;;;2.50;0.68;;;;;;;-148.88;100.00;-17125.47;5033357;28;20423;-85
2023/12/23 04:27:41;;;;;;;6.60;0.95;;;;;;;-148.88;100.00;-17125.47;5033510;28;20025;-85
2023/12/23 04:30:07;;;;;;;2.45;0.60;;;;;;;-148.88;100.00;-17125.47;5033537;28;20017;-85
2023/12/23 04:32:32;;;;;;;11.20;1.27;;;;;;;-148.88;100.00;-17125.47;5032014;28;20029;-85
2023/12/23 04:34:59;;;;;;;6.90;0.90;;;;;;;-148.88;100.00;-17125.47;5034311;28;20034;-85
2023/12/23 04:37:25;;;;;;;5.97;1.10;;;;;;;-148.88;100.00;-17125.47;5037445;28;20021;-85
2023/12/23 04:39:50;;;;;;;4.63;0.70;;;;;;;-148.88;100.00;-17125.47;5038178;28;20025;-85
2023/12/23 04:42:16;;;;;;;7.25;0.75;;;;;;;-148.88;100.00;-17125.47;5036664;28;20025;-85
2023/12/23 04:44:41;;;;;;;7.38;0.88;;;;;;;-148.88;100.00;-17125.47;5037995;28;20021;-85
2023/12/23 04:47:07;;;;;;;8.45;1.27;;;;;;;-148.88;100.00;-17125.47;5040015;28;20044;-85
2023/12/23 04:49:32;;;;;;;7.13;0.85;;;;;;;-148.88;100.00;-17125.47;5039034;28;20053;-85
2023/12/23 04:51:58;;;;;;;5.50;0.77;;;;;;;-148.88;100.00;-17125.47;5039597;28;20061;-85
2023/12/23 04:54:23;;;;;;;2.70;0.90;;;;;;;-148.88;100.00;-17125.47;5040616;28;20063;-85
2023/12/23 04:56:48;;;;;;;3.50;0.57;;;;;;;-148.88;100.00;-17125.47;5038967;28;20060;-85
2023/12/23 04:59:14;;;;;;;8.07;0.75;;;;;;;-148.88;100.00;-17125.47;5039365;28;20075;-85
2023/12/23 05:01:39;;;;;;;5.75;1.00;;;;;;;-148.88;100.00;-17125.47;5036776;28;20013;-85
2023/12/23 05:04:05;;;;;;;1.88;0.60;;;;;;;-148.88;100.00;-17125.47;5037339;28;20048;-85
2023/12/23 05:06:30;;;;;;;3.83;0.63;;;;;;;-148.88;100.00;-17125.47;5035936;28;20061;-85
2023/12/23 05:08:56;;;;;;;2.17;0.60;;;;;;;-148.88;100.00;-17125.47;5036793;28;20132;-85
2023/12/23 05:11:21;;;;;;;4.35;1.00;;;;;;;-148.88;100.00;-17125.47;5036823;28;20081;-85
2023/12/23 05:13:46;;;;;;;5.45;0.60;;;;;;;-148.88;100.00;-17125.47;5037153;28;20017;-85
2023/12/23 05:16:12;;;;;;;6.32;1.52;;;;;;;-148.88;100.00;-17125.47;5038150;28;20099;-85
2023/12/23 05:18:37;;;;;;;2.70;0.40;;;;;;;-148.88;100.00;-17125.47;5039353;28;20089;-85
2023/12/23 05:21:03;;;;;;;7.13;0.55;;;;;;;-148.88;100.00;-17125.47;5037179;28;20025;-85
2023/12/23 05:23:28;;;;;;;2.58;0.63;;;;;;;-148.88;100.00;-17125.47;5038558;28;20025;-85
2023/12/23 05:25:54;;;;;;;5.25;0.57;;;;;;;-148.88;100.00;-17125.47;5037550;28;20029;-85
2023/12/23 05:28:20;;;;;;;5.60;0.63;;;;;;;-148.88;100.00;-17125.47;5038093;28;20056;-85
2023/12/23 05:30:46;;;;;;;3.65;0.50;;;;;;;-148.88;100.00;-17125.47;5037034;28;20029;-85
2023/12/23 05:33:12;;;;;;;4.55;1.58;;;;;;;-148.88;100.00;-17125.47;5038294;28;20037;-85
2023/12/23 05:35:37;;;;;;;3.85;0.50;;;;;;;-148.88;100.00;-17125.47;5038534;28;20035;-85
2023/12/23 05:38:05;;;;;;;2.58;0.50;;;;;;;-148.88;100.00;-17125.47;5035209;28;20021;-85
2023/12/23 05:40:30;;;;;;;1.55;0.30;;;;;;;-148.88;100.00;-17125.47;5035383;28;20025;-85
2023/12/23 05:42:56;;;;;;;2.38;0.30;;;;;;;-148.88;100.00;-17125.47;5038280;28;20480;-85
2023/12/23 05:45:21;;;;;;;0.40;0.20;;;;;;;-148.88;100.00;-17125.47;5036542;28;20068;-85
2023/12/23 05:47:49;;;;;;;1.45;0.30;;;;;;;-148.88;100.00;-17125.47;5035581;28;20060;-85
2023/12/23 05:50:15;;;;;;;0.50;0.22;;;;;;;-148.88;100.00;-17125.47;5036467;28;20025;-85
2023/12/23 05:52:41;;;;;;;3.22;0.52;;;;;;;-148.88;100.00;-17125.47;5036631;28;20034;-85
2023/12/23 05:55:07;;;;;;;0.77;0.38;;;;;;;-148.88;100.00;-17125.47;5036328;28;20025;-85
2023/12/23 05:57:33;;;;;;;1.63;0.20;;;;;;;-148.88;100.00;-17125.47;5037408;28;20033;-85
2023/12/23 05:59:58;;;;;;;1.65;0.90;;;;;;;-148.88;100.00;-17125.47;5037659;28;20056;-85
2023/12/23 06:02:23;;;;;;;2.67;0.50;;;;;;;-148.88;100.00;-17125.47;5038206;28;20122;-85
2023/12/23 06:04:49;;;;;;;1.60;0.40;;;;;;;-148.88;100.00;-17125.47;5039742;28;20361;-85
2023/12/23 06:07:14;;;;;;;0.93;0.28;;;;;;;-148.88;100.00;-17125.47;5040391;28;20029;-85
2023/12/23 06:09:40;;;;;;;2.88;0.60;;;;;;;-148.88;100.00;-17125.47;5039013;28;20017;-85
2023/12/23 06:12:05;;;;;;;2.85;0.50;;;;;;;-148.88;100.00;-17125.47;5040601;28;20155;-85
2023/12/23 06:14:31;;;;;;;2.50;0.80;;;;;;;-148.88;100.00;-17125.47;5038151;28;20040;-84
2023/12/23 06:16:56;;;;;;;3.13;0.40;;;;;;;-148.88;100.00;-17125.47;5036188;28;20034;-85
2023/12/23 06:19:22;;;;;;;1.98;0.50;;;;;;;-148.88;100.00;-17125.47;5038476;28;20081;-85
2023/12/23 06:21:48;;;;;;;4.18;1.50;;;;;;;-148.88;100.00;-17125.47;5038175;28;20041;-85
2023/12/23 06:24:14;;;;;;;3.78;0.60;;;;;;;-148.88;100.00;-17125.47;5035986;28;20105;-85
2023/12/23 06:26:39;;;;;;;1.83;0.70;;;;;;;-148.88;100.00;-17125.47;5037417;28;20396;-85
2023/12/23 06:29:05;;;;;;;1.25;0.38;;;;;;;-148.88;100.00;-17125.47;5039561;28;20029;-85
2023/12/23 06:31:31;;;;;;;3.30;0.75;;;;;;;-148.88;100.00;-17125.47;5037058;28;20493;-84
2023/12/23 06:33:56;;;;;;;4.00;0.63;;;;;;;-148.88;100.00;-17125.47;5036419;28;20466;-83
2023/12/23 06:36:22;;;;;;;2.30;0.50;;;;;;;-148.88;100.00;-17125.47;5038392;28;20095;-83
2023/12/23 06:38:48;;;;;;;4.03;0.80;;;;;;;-148.88;100.00;-17125.47;5036613;28;20051;-83
2023/12/23 06:41:13;;;;;;;2.90;1.30;;;;;;;-148.88;100.00;-17125.47;5036189;28;20079;-83
2023/12/23 06:43:39;;;;;;;4.65;1.10;;;;;;;-148.88;100.00;-17125.47;5038060;28;20028;-83
2023/12/23 06:46:04;;;;;;;2.42;0.93;;;;;;;-148.88;100.00;-17125.47;5040236;28;20030;-83
2023/12/23 06:48:30;;;;;;;1.85;0.75;;;;;;;-148.88;100.00;-17125.47;5039447;28;20388;-83
2023/12/23 06:50:55;;;;;;;2.45;0.57;;;;;;;-148.88;100.00;-17125.47;5034396;28;20021;-83
2023/12/23 06:53:20;;;;;;;1.77;0.60;;;;;;;-148.88;100.00;-17125.47;5036149;28;20028;-81
2023/12/23 06:55:46;;;;;;;3.95;0.68;;;;;;;-148.88;100.00;-17125.47;5034027;28;20089;-81
2023/12/23 06:58:11;;;;;;;4.35;0.75;;;;;;;-148.88;100.00;-17125.47;5035593;28;20083;-80
2023/12/23 07:00:37;;;;;;;2.25;0.90;;;;;;;-148.88;100.00;-17125.47;5036842;28;20029;-81
2023/12/23 07:03:02;;;;;;;2.72;0.60;;;;;;;-148.88;100.00;-17125.47;5035333;28;20032;-80
2023/12/23 07:05:28;;;;;;;4.90;0.75;;;;;;;-148.88;100.00;-17125.47;5033083;28;20071;-83
2023/12/23 07:07:53;;;;;;;1.38;0.47;;;;;;;-148.88;100.00;-17125.47;5034009;28;20029;-81
2023/12/23 07:10:18;;;;;;;1.00;0.50;;;;;;;-148.88;100.00;-17125.47;5034195;28;20021;-81
2023/12/23 07:12:44;;;;;;;3.08;0.93;;;;;;;-148.88;100.00;-17125.47;5034817;28;20443;-80
2023/12/23 07:15:09;;;;;;;8.02;2.75;;;;;;;-148.88;100.00;-17125.47;5035167;28;20447;-80
2023/12/23 07:17:35;;;;;;;7.00;2.95;;;;;;;-148.88;100.00;-17125.47;5035187;28;20025;-81
2023/12/23 07:20:00;;;;;;;6.25;2.85;;;;;;;-148.88;100.00;-17125.47;5036676;28;20033;-81
2023/12/23 07:22:28;;;;;;;4.13;0.90;;;;;;;-148.88;100.00;-17125.47;5036303;28;20476;-81
2023/12/23 07:24:53;;;;;;;2.17;0.88;;;;;;;-148.88;100.00;-17125.47;5036037;28;20026;-80
2023/12/23 07:27:19;;;;;;;2.10;0.80;;;;;;;-148.88;100.00;-17125.47;5034782;28;20384;-80
2023/12/23 07:29:44;;;;;;;1.38;0.60;;;;;;;-148.88;100.00;-17125.47;5035362;28;20030;-80
2023/12/23 07:32:09;;;;;;;2.88;0.60;;;;;;;-148.88;100.00;-17125.47;5033488;28;20021;-81
2023/12/23 07:34:35;;;;;;;1.58;0.50;;;;;;;-148.88;100.00;-17125.47;5032774;28;20488;-80
2023/12/23 07:37:00;;;;;;;1.45;0.80;;;;;;;-148.88;100.00;-17125.47;5034319;28;20627;-80
2023/12/23 07:39:26;;;;;;;2.13;0.90;;;;;;;-148.88;100.00;-17125.47;5034265;28;20025;-80
2023/12/23 07:41:51;;;;;;;2.70;0.95;;;;;;;-148.88;100.00;-17125.47;5034717;28;20052;-81
2023/12/23 07:44:16;;;;;;;3.72;1.50;;;;;;;-148.88;100.00;-17125.47;5033476;28;20433;-80
2023/12/23 07:46:42;;;;;;;2.45;1.38;;;;;;;-148.88;100.00;-17125.47;5033893;28;20439;-80
2023/12/23 07:49:07;;;;;;;2.67;1.13;;;;;;;-148.88;100.00;-17125.47;5035090;28;20052;-81
2023/12/23 07:51:33;;;;;;;3.05;1.27;;;;;;;-148.88;100.00;-17125.47;5033045;28;20033;-81
2023/12/23 07:53:58;;;;;;;4.03;2.30;;;;;;;-148.88;100.00;-17125.47;5034517;28;20025;-80
2023/12/23 07:56:25;;;;;;;3.08;1.33;;;;;;;-148.88;100.00;-17125.47;5035041;28;20029;-81
2023/12/23 07:58:51;;;;;;;2.45;1.33;;;;;;;-148.88;100.00;-17125.47;5034345;28;20030;-81
2023/12/23 08:01:16;;;;;;;2.60;1.30;;;;;;;-148.88;100.00;-17125.47;5035823;28;20036;-81
2023/12/23 08:03:41;;;;;;;2.15;1.08;;;;;;;-148.88;100.00;-17125.47;5034451;28;20445;-81
2023/12/23 08:06:07;;;;;;;2.88;1.30;;;;;;;-148.88;100.00;-17125.47;5033802;28;20109;-81
2023/12/23 08:08:32;;;;;;;4.40;2.00;;;;;;;-148.88;100.00;-17125.47;5034628;28;20033;-81
2023/12/23 08:10:58;;;;;;;6.55;2.20;;;;;;;-148.88;100.00;-17125.47;5036377;28;20060;-80
2023/12/23 08:13:23;;;;;;;21.55;3.40;;;;;;;-148.88;100.00;-17125.47;5038614;28;20480;-81
2023/12/23 08:15:49;;;;;;;3.70;1.70;;;;;;;-148.88;100.00;-17125.47;5036655;28;20059;-81
2023/12/23 08:18:16;;;;;;;2.60;1.30;;;;;;;-148.88;100.00;-17125.47;5038179;28;20021;-81
2023/12/23 08:20:41;;;;;;;5.07;1.45;;;;;;;-148.88;100.00;-17125.47;5036666;28;20500;-81
2023/12/23 08:23:07;;;;;;;4.63;1.42;;;;;;;-148.88;100.00;-17125.47;5036819;28;20051;-81
2023/12/23 08:25:32;;;;;;;2.67;1.00;;;;;;;-148.88;100.00;-17125.47;5038696;28;20108;-81
2023/12/23 08:27:58;;;;;;;3.15;0.95;;;;;;;-148.88;100.00;-17125.47;5036746;28;20053;-81
2023/12/23 08:30:23;;;;;;;6.40;1.05;;;;;;;-148.88;100.00;-17125.47;5038459;28;20495;-81
2023/12/23 08:32:48;;;;;;;4.32;1.20;;;;;;;-148.88;100.00;-17125.47;5038831;28;20515;-80
2023/12/23 08:35:15;;;;;;;6.05;1.20;;;;;;;-148.88;100.00;-17125.47;5040652;28;20057;-81
2023/12/23 08:37:40;;;;;;;6.20;1.10;;;;;;;-148.88;100.00;-17125.47;5038689;28;20032;-81
2023/12/23 08:40:07;;;;;;;6.38;1.23;;;;;;;-148.88;100.00;-17125.47;5037625;28;20034;-81
2023/12/23 08:42:33;;;;;;;2.60;0.80;;;;;;;-148.88;100.00;-17125.47;5038287;28;20022;-81
2023/12/23 08:44:58;;;;;;;4.03;0.82;;;;;;;-148.88;100.00;-17125.47;5038754;28;20030;-81
2023/12/23 08:47:23;;;;;;;3.40;0.98;;;;;;;-148.88;100.00;-17125.47;5037253;28;20076;-82
2023/12/23 08:49:49;;;;;;;1.80;0.70;;;;;;;-148.88;100.00;-17125.47;5038322;28;20154;-82
2023/12/23 08:52:14;;;;;;;2.78;1.10;;;;;;;-148.88;100.00;-17125.47;5036735;28;20037;-82
2023/12/23 08:54:40;;;;;;;9.05;2.47;;;;;;;-148.88;100.00;-17125.47;5037665;28;20396;-82
2023/12/23 08:57:05;;;;;;;5.53;2.40;;;;;;;-148.88;100.00;-17125.47;5036556;28;20120;-82
2023/12/23 08:59:31;;;;;;;3.95;1.98;;;;;;;-148.88;100.00;-17125.47;5036370;28;20208;-82
2023/12/23 09:02:01;;;;;;;4.03;1.80;;;;;;;-148.88;100.00;-17125.47;5036425;28;20027;-82
2023/12/23 09:04:26;;;;;;;2.85;1.23;;;;;;;-148.88;100.00;-17125.47;5037374;28;20057;-83
2023/12/23 09:06:52;;;;;;;2.20;1.10;;;;;;;-148.88;100.00;-17125.47;5038022;28;20032;-82
2023/12/23 09:09:17;;;;;;;3.60;2.20;;;;;;;-148.88;100.00;-17125.47;5036232;28;20029;-82
2023/12/23 09:11:44;;;;;;;2.72;1.30;;;;;;;-148.88;100.00;-17125.47;5038643;28;20026;-81
2023/12/23 09:14:12;;;;;;;2.47;1.25;;;;;;;-148.88;100.00;-17125.47;5035209;28;20472;-81
2023/12/23 09:16:38;;;;;;;2.47;1.17;;;;;;;-148.88;100.00;-17125.47;5034299;28;20037;-81
2023/12/23 09:19:04;;;;;;;1.60;0.90;;;;;;;-148.88;100.00;-17125.47;5034457;28;20084;-82
2023/12/23 09:21:29;;;;;;;4.25;2.15;;;;;;;-148.88;100.00;-17125.47;5034087;28;20024;-82
2023/12/23 09:23:55;;;;;;;3.28;1.67;;;;;;;-148.88;100.00;-17125.47;5035076;28;20021;-82
2023/12/23 09:26:20;;;;;;;3.22;1.90;;;;;;;-148.88;100.00;-17125.47;5036680;28;20100;-82
2023/12/23 09:28:46;;;;;;;2.00;1.00;;;;;;;-148.88;100.00;-17125.47;5035262;28;20048;-82
2023/12/23 09:31:12;;;;;;;0.70;0.40;;;;;;;-148.88;100.00;-17125.47;5036052;28;20025;-82
2023/12/23 09:33:39;;;;;;;0.77;0.30;;;;;;;-148.88;100.00;-17125.47;5034830;28;20021;-82
2023/12/23 09:36:05;;;;;;;1.00;0.50;;;;;;;-148.88;100.00;-17125.47;5037125;28;20531;-83
2023/12/23 09:38:30;;;;;;;2.40;0.38;;;;;;;-148.88;100.00;-17125.47;5036619;28;20025;-83
2023/12/23 09:40:56;;;;;;;1.50;0.50;;;;;;;-148.88;100.00;-17125.47;5037272;28;20081;-82
2023/12/23 09:43:23;;;;;;;1.02;0.30;;;;;;;-148.88;100.00;-17125.47;5036228;28;20029;-83
2023/12/23 09:45:49;;;;;;;0.70;0.40;;;;;;;-148.88;100.00;-17125.47;5037661;28;20038;-83
2023/12/23 09:48:15;;;;;;;1.00;0.40;;;;;;;-148.88;100.00;-17125.47;5038904;28;20025;-82
2023/12/23 09:50:41;;;;;;;1.00;0.40;;;;;;;-148.88;100.00;-17125.47;5036321;28;20025;-83
2023/12/23 09:53:07;;;;;;;3.53;0.60;;;;;;;-148.88;100.00;-17125.47;5034923;28;20029;-82
2023/12/23 09:55:33;;;;;;;0.85;0.32;;;;;;;-148.88;100.00;-17125.47;5035500;28;20025;-83
2023/12/23 09:58:00;;;;;;;1.00;0.43;;;;;;;-148.88;100.00;-17125.47;5034929;28;20076;-83
2023/12/23 10:00:25;;;;;;;0.65;0.40;;;;;;;-148.88;100.00;-17125.47;5035289;28;20033;-84
2023/12/23 10:02:50;;;;;;;0.88;0.40;;;;;;;-148.88;100.00;-17125.47;5037379;28;20070;-83
2023/12/23 10:05:16;;;;;;;0.90;0.35;;;;;;;-148.88;100.00;-17125.47;5035170;28;20108;-84
2023/12/23 10:07:42;;;;;;;2.90;0.60;;;;;;;-148.88;100.00;-17125.47;5036746;28;20117;-84
2023/12/23 10:10:07;;;;;;;1.27;0.35;;;;;;;-148.88;100.00;-17125.47;5035224;28;20128;-84
2023/12/23 10:12:33;;;;;;;1.75;0.40;;;;;;;-148.88;100.00;-17125.47;5036614;28;20021;-83
2023/12/23 10:14:58;;;;;;;0.57;0.40;;;;;;;-148.88;100.00;-17125.47;5035061;28;20028;-83
2023/12/23 10:17:24;;;;;;;0.77;0.40;;;;;;;-148.88;100.00;-17125.47;5037655;28;20036;-84
2023/12/23 10:19:49;;;;;;;0.77;0.38;;;;;;;-148.88;100.00;-17125.47;5037692;28;20108;-82
2023/12/23 10:22:18;;;;;;;2.22;0.70;;;;;;;-148.88;100.00;-17125.47;5040669;28;20085;-83
2023/12/23 10:24:43;;;;;;;3.00;0.70;;;;;;;-148.88;100.00;-17125.47;5048726;28;20036;-83
2023/12/23 10:27:13;;;;;;;3.45;1.10;;;;;;;-148.88;100.00;-17125.47;5041852;28;20025;-82
2023/12/23 10:29:41;;;;;;;2.33;1.10;;;;;;;-148.88;100.00;-17125.47;5035293;28;20021;-83
2023/12/23 10:32:11;;;;;;;5.35;0.88;;;;;;;-148.88;100.00;-17125.47;5035637;28;20029;-82
2023/12/23 10:34:44;;;;;;;1.95;0.90;;;;;;;-148.88;100.00;-17125.47;5034376;28;20022;-82
2023/12/23 10:37:13;;;;;;;1.92;0.70;;;;;;;-148.88;100.00;-17125.47;5034106;28;20033;-82
2023/12/23 10:39:50;;;;;;;1.52;0.50;;;;;;;-148.88;100.00;-17125.47;5035642;28;20029;-82
2023/12/23 10:42:21;;;;;;;1.73;0.85;;;;;;;-148.88;100.00;-17125.47;5035751;28;20083;-83
2023/12/23 10:44:48;;;;;;;1.17;0.55;;;;;;;-148.88;100.00;-17125.47;5033865;28;20029;-82
2023/12/23 10:47:17;;;;;;;0.52;0.20;;;;;;;-148.88;100.00;-17125.47;5033911;28;20060;-82
2023/12/23 10:49:46;;;;;;;1.13;0.40;;;;;;;-148.88;100.00;-17125.47;5033823;28;20038;-83
2023/12/23 10:52:13;;;;;;;1.23;0.50;;;;;;;-148.88;100.00;-17125.47;5034951;28;20018;-83
2023/12/23 10:54:39;;;;;;;1.45;0.50;;;;;;;-148.88;100.00;-17125.47;5036563;28;20029;-83
2023/12/23 10:57:06;;;;;;;3.30;0.90;;;;;;;-148.88;100.00;-17125.47;5035653;28;20514;-84
2023/12/23 10:59:32;;;;;;;2.00;0.80;;;;;;;-148.88;100.00;-17125.47;5037153;28;20033;-83
2023/12/23 11:01:59;;;;;;;1.70;0.77;;;;;;;-148.88;100.00;-17125.47;5033170;28;20108;-83